createdAt,value
2023-04-17T00:01:34.702Z,132610
2023-04-17T00:03:33.577Z,132610
2023-04-17T00:05:33.117Z,132610
2023-04-17T00:07:31.963Z,132610
2023-04-17T00:09:31.745Z,132610
2023-04-17T00:11:52.326Z,132610
2023-04-17T00:13:31.633Z,132610
2023-04-17T00:15:32.209Z,132610
2023-04-17T00:17:32.267Z,132610
2023-04-17T00:19:31.718Z,132610
2023-04-17T00:21:32.072Z,132610
2023-04-17T00:23:55.304Z,132610
2023-04-17T00:25:31.929Z,132610
2023-04-17T00:27:31.381Z,132610
2023-04-17T00:29:32.316Z,132610
2023-04-17T00:31:31.761Z,132610
2023-04-17T00:33:31.636Z,132610
2023-04-17T00:35:31.939Z,132610
2023-04-17T00:37:31.236Z,132610
2023-04-17T00:39:32.566Z,132610
2023-04-17T00:41:31.376Z,132610
2023-04-17T00:43:31.923Z,132610
2023-04-17T00:45:31.589Z,132610
2023-04-17T00:47:32.462Z,132610
2023-04-17T00:49:32.000Z,132610
2023-04-17T00:51:32.022Z,132610
2023-04-17T00:53:31.608Z,132610
2023-04-17T00:55:32.170Z,132610
2023-04-17T00:57:31.728Z,132610
2023-04-17T00:59:32.431Z,132610
2023-04-17T01:01:34.894Z,132610
2023-04-17T01:03:33.746Z,132610
2023-04-17T01:05:32.185Z,132610
2023-04-17T01:07:32.052Z,132610
2023-04-17T01:09:31.774Z,132610
2023-04-17T01:11:32.078Z,132610
2023-04-17T01:13:32.294Z,132610
2023-04-17T01:15:33.150Z,132610
2023-04-17T01:17:32.449Z,132610
2023-04-17T01:19:32.908Z,132610
2023-04-17T01:21:31.769Z,132610
2023-04-17T01:23:31.263Z,132610
2023-04-17T01:25:31.956Z,132610
2023-04-17T01:27:31.535Z,132610
2023-04-17T01:29:32.400Z,132610
2023-04-17T01:31:32.318Z,132610
2023-04-17T01:33:32.605Z,132610
2023-04-17T01:35:34.125Z,132610
2023-04-17T01:37:32.111Z,132610
2023-04-17T01:39:31.833Z,132610
2023-04-17T01:41:32.234Z,132610
2023-04-17T01:43:31.726Z,132610
2023-04-17T01:45:31.493Z,132610
2023-04-17T01:47:32.330Z,132610
2023-04-17T01:49:31.657Z,132610
2023-04-17T01:51:31.997Z,132610
2023-04-17T01:53:31.508Z,132610
2023-04-17T01:55:32.063Z,132610
2023-04-17T01:57:31.602Z,132610
2023-04-17T01:59:32.529Z,132610
2023-04-17T02:01:34.758Z,132610
2023-04-17T02:03:33.860Z,132610
2023-04-17T02:05:32.477Z,132610
2023-04-17T02:07:32.053Z,132610
2023-04-17T02:09:31.858Z,132610
2023-04-17T02:11:32.427Z,132610
2023-04-17T02:13:31.908Z,132610
2023-04-17T02:15:31.626Z,132610
2023-04-17T02:17:32.401Z,132610
2023-04-17T02:19:31.833Z,132610
2023-04-17T02:21:32.260Z,132610
2023-04-17T02:23:31.753Z,132610
2023-04-17T02:25:31.324Z,132610
2023-04-17T02:27:31.598Z,132610
2023-04-17T02:29:31.701Z,132610
2023-04-17T02:31:32.305Z,132610
2023-04-17T02:33:31.940Z,132610
2023-04-17T02:35:31.925Z,132610
2023-04-17T02:37:31.500Z,132610
2023-04-17T02:39:32.879Z,132610
2023-04-17T02:41:31.872Z,132610
2023-04-17T02:43:31.239Z,132610
2023-04-17T02:45:32.183Z,132610
2023-04-17T02:47:32.217Z,132610
2023-04-17T02:49:32.690Z,132610
2023-04-17T02:51:31.682Z,132610
2023-04-17T02:53:31.238Z,132610
2023-04-17T02:55:31.792Z,132610
2023-04-17T02:57:31.458Z,132610
2023-04-17T02:59:32.268Z,132610
2023-04-17T03:01:35.142Z,132610
2023-04-17T03:03:33.603Z,132610
2023-04-17T03:05:31.801Z,132610
2023-04-17T03:07:31.984Z,132610
2023-04-17T03:09:31.417Z,132610
2023-04-17T03:11:32.058Z,132610
2023-04-17T03:13:31.498Z,132610
2023-04-17T03:15:32.003Z,132610
2023-04-17T03:17:32.434Z,132610
2023-04-17T03:19:32.461Z,132610
2023-04-17T03:21:31.910Z,132610
2023-04-17T03:23:32.188Z,132610
2023-04-17T03:25:31.635Z,132610
2023-04-17T03:27:32.342Z,132610
2023-04-17T03:29:32.016Z,132610
2023-04-17T03:31:35.656Z,132610
2023-04-17T03:33:32.170Z,132610
2023-04-17T03:35:31.288Z,132610
2023-04-17T03:37:31.950Z,132610
2023-04-17T03:39:31.688Z,132610
2023-04-17T03:41:31.706Z,132610
2023-04-17T03:43:31.346Z,132610
2023-04-17T03:45:32.101Z,132610
2023-04-17T03:47:32.144Z,132610
2023-04-17T03:49:32.548Z,132610
2023-04-17T03:51:31.403Z,132610
2023-04-17T03:53:32.021Z,132610
2023-04-17T03:55:32.206Z,132610
2023-04-17T03:57:32.179Z,132610
2023-04-17T03:59:31.532Z,132610
2023-04-17T04:01:38.318Z,132610
2023-04-17T04:03:34.250Z,132610
2023-04-17T04:05:33.581Z,132610
2023-04-17T04:07:32.383Z,132610
2023-04-17T04:09:32.285Z,132610
2023-04-17T04:11:31.535Z,132610
2023-04-17T04:13:32.071Z,132610
2023-04-17T04:15:31.505Z,132610
2023-04-17T04:17:32.722Z,132610
2023-04-17T04:19:32.079Z,132610
2023-04-17T04:21:31.299Z,132610
2023-04-17T04:23:32.154Z,132610
2023-04-17T04:25:31.490Z,132610
2023-04-17T04:27:32.072Z,132610
2023-04-17T04:29:32.991Z,132610
2023-04-17T04:31:32.682Z,132610
2023-04-17T04:33:32.081Z,132610
2023-04-17T04:35:31.860Z,132610
2023-04-17T04:37:31.883Z,132610
2023-04-17T04:39:32.693Z,132610
2023-04-17T04:41:31.554Z,132610
2023-04-17T04:43:33.949Z,132610
2023-04-17T04:45:31.696Z,132610
2023-04-17T04:47:32.369Z,132610
2023-04-17T04:49:32.023Z,132610
2023-04-17T04:51:32.236Z,132610
2023-04-17T04:53:31.588Z,132610
2023-04-17T04:55:32.123Z,132610
2023-04-17T04:57:31.671Z,132610
2023-04-17T04:59:32.241Z,132610
2023-04-17T05:01:36.351Z,132610
2023-04-17T05:03:34.975Z,132610
2023-04-17T05:05:33.017Z,132610
2023-04-17T05:07:31.585Z,132610
2023-04-17T05:09:32.194Z,132610
2023-04-17T05:11:31.520Z,132610
2023-04-17T05:13:31.939Z,132610
2023-04-17T05:15:31.441Z,132610
2023-04-17T05:17:32.553Z,132610
2023-04-17T05:19:32.017Z,132610
2023-04-17T05:21:32.296Z,132610
2023-04-17T05:23:31.509Z,132610
2023-04-17T05:25:31.801Z,132610
2023-04-17T05:27:31.139Z,132610
2023-04-17T05:29:36.232Z,132610
2023-04-17T05:31:31.404Z,132610
2023-04-17T05:33:32.201Z,132610
2023-04-17T05:35:31.272Z,132610
2023-04-17T05:37:32.272Z,132610
2023-04-17T05:39:31.804Z,132610
2023-04-17T05:41:31.418Z,132610
2023-04-17T05:43:31.994Z,132610
2023-04-17T05:45:31.328Z,132610
2023-04-17T05:47:32.262Z,132610
2023-04-17T05:49:32.004Z,132610
2023-04-17T05:51:31.996Z,132610
2023-04-17T05:53:33.202Z,132610
2023-04-17T05:55:31.696Z,132610
2023-04-17T05:57:31.301Z,132610
2023-04-17T05:59:47.223Z,132610
2023-04-17T06:01:34.531Z,132610
2023-04-17T06:03:33.719Z,132610
2023-04-17T06:05:36.448Z,132610
2023-04-17T06:07:31.938Z,132610
2023-04-17T06:09:32.562Z,132610
2023-04-17T06:11:31.446Z,132610
2023-04-17T06:13:32.066Z,132610
2023-04-17T06:15:31.806Z,132610
2023-04-17T06:17:32.735Z,132610
2023-04-17T06:19:32.193Z,132610
2023-04-17T06:21:35.678Z,132610
2023-04-17T06:23:31.682Z,132610
2023-04-17T06:25:32.165Z,132610
2023-04-17T06:27:31.702Z,132610
2023-04-17T06:29:32.532Z,132610
2023-04-17T06:31:32.133Z,132610
2023-04-17T06:33:32.540Z,132610
2023-04-17T06:35:44.714Z,132610
2023-04-17T06:37:32.212Z,132610
2023-04-17T06:39:31.586Z,132610
2023-04-17T06:41:32.132Z,132610
2023-04-17T06:43:31.749Z,132610
2023-04-17T06:45:32.144Z,132610
2023-04-17T06:47:34.841Z,132610
2023-04-17T06:49:32.544Z,132610
2023-04-17T06:51:31.481Z,132610
2023-04-17T06:53:32.200Z,132610
2023-04-17T06:55:31.685Z,132610
2023-04-17T06:57:32.170Z,132610
2023-04-17T06:59:31.702Z,224.86
2023-04-17T07:01:35.212Z,224.86
2023-04-17T07:03:34.101Z,224.86
2023-04-17T07:05:32.932Z,20037.9
2023-04-17T07:07:32.130Z,20037.9
2023-04-17T07:09:31.537Z,20037.9
2023-04-17T07:11:31.989Z,20037.9
2023-04-17T07:13:31.607Z,20037.9
2023-04-17T07:15:32.367Z,20037.9
2023-04-17T07:17:32.329Z,20037.9
2023-04-17T07:19:31.846Z,20037.9
2023-04-17T07:21:31.400Z,20037.9
2023-04-17T07:23:35.043Z,20037.9
2023-04-17T07:25:31.703Z,20037.9
2023-04-17T07:27:32.028Z,20037.9
2023-04-17T07:29:34.674Z,20037.9
2023-04-17T07:31:32.276Z,20037.9
2023-04-17T07:33:32.329Z,20037.9
2023-04-17T07:35:31.903Z,20037.9
2023-04-17T07:37:31.420Z,20037.9
2023-04-17T07:39:31.951Z,20037.9
2023-04-17T07:41:31.804Z,20037.9
2023-04-17T07:43:31.747Z,20037.9
2023-04-17T07:45:31.354Z,20037.9
2023-04-17T07:47:32.431Z,20037.9
2023-04-17T07:49:31.941Z,20037.9
2023-04-17T07:51:32.267Z,20037.9
2023-04-17T07:53:31.613Z,20037.9
2023-04-17T07:55:32.085Z,20037.9
2023-04-17T07:57:31.645Z,20037.9
2023-04-17T07:59:32.851Z,20037.9
2023-04-17T08:01:34.764Z,20037.9
2023-04-17T08:03:33.604Z,20037.9
2023-04-17T08:05:34.466Z,20037.9
2023-04-17T08:07:31.583Z,20037.9
2023-04-17T08:09:32.137Z,20037.9
2023-04-17T08:13:31.899Z,72.12
2023-04-17T08:15:31.505Z,72.12
2023-04-17T08:17:32.792Z,8.68
2023-04-17T08:19:32.097Z,8.68
2023-04-17T08:21:32.496Z,8.68
2023-04-17T08:23:31.544Z,3.44
2023-04-17T08:25:32.009Z,3.44
2023-04-17T08:27:31.589Z,3.44
2023-04-17T08:29:32.089Z,2.07
2023-04-17T08:31:34.256Z,2.07
2023-04-17T08:33:45.033Z,2.07
2023-04-17T08:35:44.130Z,2.07
2023-04-17T08:37:34.289Z,1.38
2023-04-17T08:39:31.776Z,1.38
2023-04-17T08:41:32.071Z,1.38
2023-04-17T08:43:37.250Z,1.16
2023-04-17T08:45:32.061Z,1.16
2023-04-17T08:47:32.233Z,1.16
2023-04-17T08:49:33.012Z,1016.92
2023-04-17T08:51:31.560Z,1016.92
2023-04-17T08:53:31.915Z,1016.92
2023-04-17T08:55:34.907Z,908.86
2023-04-17T08:57:34.536Z,908.86
2023-04-17T08:59:31.641Z,908.86
2023-04-17T09:01:39.663Z,0.77
2023-04-17T09:03:36.716Z,0.77
2023-04-17T09:05:33.220Z,0.77
2023-04-17T09:07:32.532Z,0.74
2023-04-17T09:09:32.316Z,0.74
2023-04-17T09:11:31.337Z,0.74
2023-04-17T09:13:31.771Z,0.69
2023-04-17T09:15:34.109Z,0.69
2023-04-17T09:17:32.477Z,0.69
2023-04-17T09:19:34.996Z,718.74
2023-04-17T09:21:31.896Z,718.74
2023-04-17T09:23:32.240Z,718.74
2023-04-17T09:25:31.846Z,0.66
2023-04-17T09:27:32.015Z,0.66
2023-04-17T09:29:31.924Z,0.66
2023-04-17T09:31:35.049Z,647.02
2023-04-17T09:33:31.951Z,647.02
2023-04-17T09:35:32.144Z,647.02
2023-04-17T09:37:31.493Z,0.59
2023-04-17T09:39:32.451Z,0.59
2023-04-17T09:41:31.783Z,0.59
2023-04-17T09:43:33.650Z,0.58
2023-04-17T09:45:32.146Z,0.58
2023-04-17T09:47:32.717Z,0.58
2023-04-17T09:49:31.942Z,0.59
2023-04-17T09:51:35.121Z,0.59
2023-04-17T09:53:31.675Z,0.59
2023-04-17T09:55:32.211Z,613.21
2023-04-17T09:57:32.365Z,613.21
2023-04-17T09:59:31.886Z,613.21
2023-04-17T10:01:35.490Z,591.4
2023-04-17T10:03:35.933Z,591.4
2023-04-17T10:05:32.803Z,591.4
2023-04-17T10:07:31.349Z,559.76
2023-04-17T10:09:31.775Z,559.76
2023-04-17T10:11:31.527Z,559.76
2023-04-17T10:13:32.083Z,0.51
2023-04-17T10:15:32.223Z,0.51
2023-04-17T10:17:32.122Z,0.51
2023-04-17T10:19:32.810Z,509.78
2023-04-17T10:21:31.812Z,509.78
2023-04-17T10:23:32.592Z,509.78
2023-04-17T10:25:31.874Z,0.49
2023-04-17T10:27:32.157Z,0.49
2023-04-17T10:29:32.002Z,0.49
2023-04-17T10:31:32.613Z,0.49
2023-04-17T10:33:32.578Z,0.49
2023-04-17T10:35:32.259Z,0.49
2023-04-17T10:37:31.478Z,0.52
2023-04-17T10:39:32.526Z,0.52
2023-04-17T10:41:34.023Z,0.52
2023-04-17T10:43:31.966Z,549.49
2023-04-17T10:45:31.533Z,549.49
2023-04-17T10:47:32.778Z,549.49
2023-04-17T10:49:33.099Z,0.52
2023-04-17T10:51:31.459Z,0.52
2023-04-17T10:53:31.949Z,0.52
2023-04-17T10:55:31.493Z,539.36
2023-04-17T10:57:32.244Z,539.36
2023-04-17T10:59:39.717Z,539.36
2023-04-17T11:01:38.725Z,0.49
2023-04-17T11:03:32.937Z,0.49
2023-04-17T11:05:32.765Z,0.49
2023-04-17T11:07:31.628Z,509.78
2023-04-17T11:09:31.481Z,509.78
2023-04-17T11:11:51.513Z,509.78
2023-04-17T11:13:31.863Z,0.48
2023-04-17T11:15:33.989Z,0.48
2023-04-17T11:17:32.040Z,0.48
2023-04-17T11:19:32.488Z,519.51
2023-04-17T11:21:31.578Z,519.51
2023-04-17T11:23:32.150Z,519.51
2023-04-17T11:25:31.725Z,519.51
2023-04-17T11:27:32.409Z,519.51
2023-04-17T11:29:31.871Z,519.51
2023-04-17T11:31:34.842Z,0.51
2023-04-17T11:33:32.124Z,0.51
2023-04-17T11:35:32.703Z,0.51
2023-04-17T11:37:32.027Z,519.51
2023-04-17T11:39:33.507Z,519.51
2023-04-17T11:41:31.832Z,519.51
2023-04-17T11:43:31.348Z,509.78
2023-04-17T11:45:31.624Z,509.78
2023-04-17T11:47:33.038Z,509.78
2023-04-17T11:49:31.772Z,0.48
2023-04-17T11:51:32.185Z,0.48
2023-04-17T11:53:32.873Z,0.48
2023-04-17T11:55:32.328Z,0.47
2023-04-17T11:57:31.252Z,0.47
2023-04-17T11:59:32.246Z,0.47
2023-04-17T12:01:31.541Z,500.19
2023-04-17T12:03:33.440Z,500.19
2023-04-17T12:05:35.973Z,500.19
2023-04-17T12:07:33.588Z,490.73
2023-04-17T12:09:32.732Z,490.73
2023-04-17T12:11:32.063Z,490.73
2023-04-17T12:13:31.453Z,500.19
2023-04-17T12:15:33.887Z,500.19
2023-04-17T12:17:32.049Z,500.19
2023-04-17T12:19:32.272Z,0.46
2023-04-17T12:21:34.294Z,0.46
2023-04-17T12:23:32.230Z,0.46
2023-04-17T12:25:31.990Z,0.46
2023-04-17T12:27:32.101Z,0.46
2023-04-17T12:29:44.976Z,0.46
2023-04-17T12:31:32.421Z,0.46
2023-04-17T12:33:32.270Z,0.46
2023-04-17T12:35:35.077Z,0.46
2023-04-17T12:37:32.078Z,0.45
2023-04-17T12:39:31.238Z,0.45
2023-04-17T12:41:32.457Z,0.45
2023-04-17T12:43:45.300Z,481.4
2023-04-17T12:45:32.053Z,481.4
2023-04-17T12:47:31.723Z,481.4
2023-04-17T12:49:32.304Z,0.45
2023-04-17T12:51:31.680Z,0.45
2023-04-17T12:53:34.052Z,0.45
2023-04-17T12:55:32.015Z,463.12
2023-04-17T12:57:32.264Z,463.12
2023-04-17T12:59:35.152Z,463.12
2023-04-17T13:01:37.918Z,454.17
2023-04-17T13:03:33.641Z,454.17
2023-04-17T13:05:38.450Z,454.17
2023-04-17T13:07:31.576Z,0.42
2023-04-17T13:09:32.244Z,0.42
2023-04-17T13:11:31.799Z,0.42
2023-04-17T13:13:32.086Z,0.42
2023-04-17T13:15:31.955Z,0.42
2023-04-17T13:17:32.765Z,0.42
2023-04-17T13:19:31.868Z,0.41
2023-04-17T13:21:32.095Z,0.41
2023-04-17T13:23:32.926Z,0.41
2023-04-17T13:25:31.944Z,454.17
2023-04-17T13:27:32.038Z,454.17
2023-04-17T13:29:32.392Z,454.17
2023-04-17T13:31:32.661Z,436.65
2023-04-17T13:33:31.938Z,436.65
2023-04-17T13:35:32.832Z,436.65
2023-04-17T13:37:31.782Z,0.42
2023-04-17T13:39:31.592Z,0.42
2023-04-17T13:41:34.556Z,0.42
2023-04-17T13:43:31.696Z,0.42
2023-04-17T13:45:32.346Z,0.42
2023-04-17T13:47:32.158Z,0.42
2023-04-17T13:49:32.397Z,436.65
2023-04-17T13:51:31.709Z,436.65
2023-04-17T13:53:33.753Z,436.65
2023-04-17T13:55:31.716Z,0.4
2023-04-17T13:57:32.078Z,0.4
2023-04-17T13:59:31.687Z,0.4
2023-04-17T14:01:35.436Z,436.65
2023-04-17T14:03:34.735Z,436.65
2023-04-17T14:05:33.335Z,436.65
2023-04-17T14:07:32.047Z,0.4
2023-04-17T14:09:31.349Z,0.4
2023-04-17T14:11:31.932Z,0.4
2023-04-17T14:13:31.342Z,0.4
2023-04-17T14:15:32.254Z,0.4
2023-04-17T14:17:31.821Z,0.4
2023-04-17T14:19:46.815Z,0.39
2023-04-17T14:21:31.567Z,0.39
2023-04-17T14:23:32.422Z,0.39
2023-04-17T14:25:31.603Z,0.39
2023-04-17T14:27:31.918Z,0.39
2023-04-17T14:29:31.494Z,0.39
2023-04-17T14:31:32.268Z,0.4
2023-04-17T14:33:31.760Z,0.4
2023-04-17T14:35:32.154Z,0.4
2023-04-17T14:37:32.599Z,0.4
2023-04-17T14:39:31.808Z,0.4
2023-04-17T14:41:32.248Z,0.4
2023-04-17T14:43:50.190Z,0.4
2023-04-17T14:45:31.943Z,0.4
2023-04-17T14:47:32.497Z,0.4
2023-04-17T14:49:50.731Z,419.62
2023-04-17T14:51:31.736Z,419.62
2023-04-17T14:53:33.349Z,419.62
2023-04-17T14:55:32.021Z,0.4
2023-04-17T14:57:31.190Z,0.4
2023-04-17T14:59:31.899Z,0.4
2023-04-17T15:01:35.629Z,0.39
2023-04-17T15:03:33.229Z,0.39
2023-04-17T15:05:32.554Z,0.39
2023-04-17T15:07:31.166Z,403.07
2023-04-17T15:09:31.838Z,403.07
2023-04-17T15:11:47.258Z,403.07
2023-04-17T15:13:31.767Z,394.98
2023-04-17T15:15:31.948Z,394.98
2023-04-17T15:17:31.862Z,394.98
2023-04-17T15:19:31.894Z,0.37
2023-04-17T15:21:32.817Z,0.37
2023-04-17T15:23:31.851Z,0.37
2023-04-17T15:25:32.147Z,387
2023-04-17T15:27:31.477Z,387
2023-04-17T15:29:32.176Z,387
2023-04-17T15:31:31.460Z,0.37
2023-04-17T15:33:33.541Z,0.37
2023-04-17T15:35:32.187Z,0.37
2023-04-17T15:37:31.748Z,387
2023-04-17T15:39:32.031Z,387
2023-04-17T15:41:33.585Z,387
2023-04-17T15:43:31.917Z,394.98
2023-04-17T15:45:31.360Z,394.98
2023-04-17T15:47:32.607Z,394.98
2023-04-17T15:49:49.758Z,394.98
2023-04-17T15:51:31.954Z,394.98
2023-04-17T15:53:31.602Z,394.98
2023-04-17T15:55:31.825Z,379.13
2023-04-17T15:57:31.274Z,379.13
2023-04-17T15:59:31.788Z,379.13
2023-04-17T16:01:35.105Z,371.38
2023-04-17T16:03:33.513Z,371.38
2023-04-17T16:05:32.962Z,371.38
2023-04-17T16:07:31.931Z,371.38
2023-04-17T16:09:31.850Z,371.38
2023-04-17T16:11:32.109Z,371.38
2023-04-17T16:13:31.739Z,356.22
2023-04-17T16:15:32.077Z,356.22
2023-04-17T16:17:32.055Z,356.22
2023-04-17T16:19:32.077Z,341.51
2023-04-17T16:21:31.808Z,341.51
2023-04-17T16:23:32.146Z,341.51
2023-04-17T16:25:32.396Z,0.31
2023-04-17T16:27:32.205Z,0.31
2023-04-17T16:29:31.740Z,0.31
2023-04-17T16:31:32.218Z,0.3
2023-04-17T16:33:31.966Z,0.3
2023-04-17T16:35:31.976Z,0.3
2023-04-17T16:37:31.516Z,306.61
2023-04-17T16:39:32.057Z,306.61
2023-04-17T16:41:32.119Z,306.61
2023-04-17T16:43:31.546Z,0.28
2023-04-17T16:45:32.516Z,0.28
2023-04-17T16:49:32.170Z,0.28
2023-04-17T16:51:33.345Z,0.28
2023-04-17T16:53:32.064Z,0.28
2023-04-17T16:55:32.238Z,0.27
2023-04-17T16:57:32.016Z,0.27
2023-04-17T16:59:32.267Z,0.27
2023-04-17T17:01:36.963Z,280.57
2023-04-17T17:03:33.186Z,280.57
2023-04-17T17:05:32.265Z,280.57
2023-04-17T17:07:32.156Z,280.57
2023-04-17T17:09:31.368Z,280.57
2023-04-17T17:11:32.121Z,280.57
2023-04-17T17:13:31.833Z,0.26
2023-04-17T17:15:32.802Z,0.26
2023-04-17T17:17:32.217Z,0.26
2023-04-17T17:19:31.987Z,0.25
2023-04-17T17:21:31.336Z,0.25
2023-04-17T17:23:31.828Z,0.25
2023-04-17T17:25:31.312Z,0.25
2023-04-17T17:27:31.436Z,0.25
2023-04-17T17:29:31.942Z,0.25
2023-04-17T17:31:31.760Z,262.09
2023-04-17T17:33:32.599Z,262.09
2023-04-17T17:35:56.212Z,262.09
2023-04-17T17:37:31.990Z,0.23
2023-04-17T17:39:32.438Z,0.23
2023-04-17T17:41:32.225Z,0.23
2023-04-17T17:43:31.837Z,0.23
2023-04-17T17:45:32.588Z,0.23
2023-04-17T17:47:32.310Z,0.23
2023-04-17T17:49:31.527Z,0.22
2023-04-17T17:51:32.077Z,0.22
2023-04-17T17:53:38.282Z,0.22
2023-04-17T17:55:32.073Z,222.3
2023-04-17T17:57:45.775Z,222.3
2023-04-17T17:59:32.008Z,222.3
2023-04-17T18:01:36.638Z,0.21
2023-04-17T18:03:33.678Z,0.21
2023-04-17T18:05:34.328Z,0.21
2023-04-17T18:07:31.757Z,206.61
2023-04-17T18:09:31.330Z,206.61
2023-04-17T18:11:31.910Z,206.61
2023-04-17T18:13:31.246Z,0.19
2023-04-17T18:15:32.511Z,0.19
2023-04-17T18:17:31.831Z,0.19
2023-04-17T18:19:32.049Z,201.56
2023-04-17T18:21:31.654Z,201.56
2023-04-17T18:23:31.732Z,201.56
2023-04-17T18:25:32.598Z,0.19
2023-04-17T18:27:31.853Z,0.19
2023-04-17T18:29:31.344Z,0.19
2023-04-17T18:31:33.069Z,0.21
2023-04-17T18:33:31.667Z,0.21
2023-04-17T18:35:32.201Z,0.21
2023-04-17T18:37:31.365Z,0.21
2023-04-17T18:39:32.173Z,0.21
2023-04-17T18:41:31.959Z,0.21
2023-04-17T18:43:31.254Z,233.2
2023-04-17T18:45:32.045Z,233.2
2023-04-17T18:47:31.781Z,233.2
2023-04-17T18:49:32.085Z,0.23
2023-04-17T18:51:31.637Z,0.23
2023-04-17T18:53:36.276Z,0.23
2023-04-17T18:55:31.317Z,0.24
2023-04-17T18:57:31.972Z,0.24
2023-04-17T18:59:31.320Z,0.24
2023-04-17T19:01:35.260Z,262.09
2023-04-17T19:03:32.736Z,262.09
2023-04-17T19:05:32.906Z,262.09
2023-04-17T19:07:31.651Z,0.26
2023-04-17T19:09:32.100Z,0.26
2023-04-17T19:11:34.498Z,0.26
2023-04-17T19:13:31.975Z,280.57
2023-04-17T19:15:31.911Z,280.57
2023-04-17T19:17:32.862Z,280.57
2023-04-17T19:19:31.853Z,0.28
2023-04-17T19:21:32.299Z,0.28
2023-04-17T19:23:34.735Z,0.28
2023-04-17T19:25:31.320Z,0.28
2023-04-17T19:27:31.899Z,0.28
2023-04-17T19:29:31.351Z,0.28
2023-04-17T19:31:32.209Z,0.3
2023-04-17T19:33:32.350Z,0.3
2023-04-17T19:35:31.275Z,0.3
2023-04-17T19:37:31.757Z,0.3
2023-04-17T19:39:34.080Z,0.3
2023-04-17T19:41:44.483Z,0.3
2023-04-17T19:43:32.052Z,0.31
2023-04-17T19:45:33.504Z,0.31
2023-04-17T19:47:32.476Z,0.31
2023-04-17T19:49:31.570Z,0.32
2023-04-17T19:51:31.940Z,0.32
2023-04-17T19:53:31.554Z,0.32
2023-04-17T19:55:31.963Z,0.33
2023-04-17T19:57:31.326Z,0.33
2023-04-17T19:59:31.831Z,0.33
2023-04-17T20:01:37.481Z,356.22
2023-04-17T20:03:33.340Z,356.22
2023-04-17T20:05:33.077Z,356.22
2023-04-17T20:07:31.308Z,0.34
2023-04-17T20:09:32.032Z,0.34
2023-04-17T20:11:31.443Z,0.34
2023-04-17T20:13:31.997Z,371.38
2023-04-17T20:15:31.747Z,371.38
2023-04-17T20:17:32.455Z,371.38
2023-04-17T20:19:32.085Z,0.37
2023-04-17T20:21:33.322Z,0.37
2023-04-17T20:23:31.575Z,0.37
2023-04-17T20:25:32.091Z,387
2023-04-17T20:27:33.781Z,387
2023-04-17T20:29:32.046Z,387
2023-04-17T20:31:31.884Z,0.37
2023-04-17T20:33:34.786Z,0.37
2023-04-17T20:35:31.529Z,0.37
2023-04-17T20:37:35.038Z,0.37
2023-04-17T20:39:31.636Z,0.37
2023-04-17T20:41:32.021Z,0.37
2023-04-17T20:43:31.638Z,0.37
2023-04-17T20:45:32.395Z,0.37
2023-04-17T20:47:32.265Z,0.37
2023-04-17T20:49:34.076Z,0.37
2023-04-17T20:51:31.808Z,0.37
2023-04-17T20:53:32.236Z,0.37
2023-04-17T20:55:32.009Z,0.37
2023-04-17T20:57:31.245Z,0.37
2023-04-17T20:59:31.977Z,0.37
2023-04-17T21:01:46.815Z,0.37
2023-04-17T21:03:33.548Z,0.37
2023-04-17T21:05:33.082Z,0.37
2023-04-17T21:07:31.668Z,0.37
2023-04-17T21:09:32.560Z,0.41
2023-04-17T21:11:32.067Z,0.41
2023-04-17T21:13:31.569Z,0.41
2023-04-17T21:15:32.212Z,0.41
2023-04-17T21:17:31.962Z,0.41
2023-04-17T21:19:32.146Z,0.42
2023-04-17T21:21:31.662Z,445.35
2023-04-17T21:23:32.067Z,445.35
2023-04-17T21:25:32.338Z,445.35
2023-04-17T21:27:31.566Z,445.35
2023-04-17T21:29:32.126Z,445.35
2023-04-17T21:31:34.949Z,0.42
2023-04-17T21:33:32.152Z,0.42
2023-04-17T21:35:32.061Z,0.42
2023-04-17T21:37:31.079Z,0.42
2023-04-17T21:39:33.115Z,445.35
2023-04-17T21:41:36.743Z,445.35
2023-04-17T21:43:31.806Z,445.35
2023-04-17T21:45:31.789Z,0.43
2023-04-17T21:47:32.152Z,0.43
2023-04-17T21:49:31.445Z,0.42
2023-04-17T21:51:31.959Z,0.42
2023-04-17T21:53:31.454Z,0.42
2023-04-17T21:55:32.653Z,0.4
2023-04-17T21:57:31.715Z,419.62
2023-04-17T21:59:31.142Z,419.62
2023-04-17T22:01:32.313Z,0.4
2023-04-17T22:03:32.960Z,419.62
2023-04-17T22:05:32.687Z,419.62
2023-04-17T22:07:36.036Z,0.39
2023-04-17T22:09:32.073Z,0.38
2023-04-17T22:11:31.420Z,0.38
2023-04-17T22:13:31.871Z,0.38
2023-04-17T22:15:32.110Z,394.98
2023-04-17T22:17:32.591Z,394.98
2023-04-17T22:19:31.333Z,0.38
2023-04-17T22:21:31.816Z,0.38
2023-04-17T22:23:31.380Z,0.38
2023-04-17T22:25:32.359Z,0.38
2023-04-17T22:27:31.558Z,0.38
2023-04-17T22:29:31.951Z,0.38
2023-04-17T22:31:31.754Z,0.38
2023-04-17T22:33:32.407Z,0.38
2023-04-17T22:35:31.745Z,0.38
2023-04-17T22:37:32.037Z,0.38
2023-04-17T22:39:31.278Z,403.07
2023-04-17T22:41:32.079Z,403.07
2023-04-17T22:43:31.648Z,403.07
2023-04-17T22:45:32.377Z,0.38
2023-04-17T22:47:32.020Z,0.38
2023-04-17T22:49:32.342Z,394.98
2023-04-17T22:51:31.496Z,0.37
2023-04-17T22:53:31.452Z,0.37
2023-04-17T22:55:45.750Z,0.37
2023-04-17T22:57:31.419Z,0.37
2023-04-17T22:59:32.142Z,0.37
2023-04-17T23:01:37.156Z,387
2023-04-17T23:03:32.958Z,0.37
2023-04-17T23:05:32.390Z,0.37
2023-04-17T23:07:31.770Z,0.37
2023-04-17T23:09:32.159Z,0.37
2023-04-17T23:11:31.687Z,0.37
2023-04-17T23:13:32.266Z,0.36
2023-04-17T23:15:32.250Z,0.37
2023-04-17T23:17:31.480Z,0.37
2023-04-17T23:19:31.950Z,379.13
2023-04-17T23:21:31.434Z,0.36
2023-04-17T23:23:32.452Z,0.36
2023-04-17T23:25:31.730Z,0.35
2023-04-17T23:27:33.614Z,0.35
2023-04-17T23:29:31.476Z,0.35
2023-04-17T23:31:32.574Z,0.35
2023-04-17T23:33:31.944Z,0.35
2023-04-17T23:35:32.745Z,0.35
2023-04-17T23:37:31.588Z,0.35
2023-04-17T23:39:32.149Z,0.35
2023-04-17T23:41:31.639Z,0.35
2023-04-17T23:43:32.169Z,371.38
2023-04-17T23:45:31.836Z,0.35
2023-04-17T23:47:32.680Z,0.35
2023-04-17T23:49:31.814Z,0.34
2023-04-17T23:51:32.089Z,0.34
2023-04-17T23:53:31.560Z,0.34
2023-04-17T23:55:32.334Z,0.34
2023-04-17T23:57:31.426Z,0.34
2023-04-17T23:59:31.942Z,0.34
